Battle Creek, MI (49015)

2:29 PM EDT on August 03, 2015 (GMT -0400)
Lakeview | | Change Station
CLOSE
Current Station
Personal Weather Station
Location: Battle Creek, MI
Elevation: 945 ft
Nearby Weather Stations

Elev 945 ft 42.30 °N, 85.22 °W | Updated 6 minutes ago

Partly Cloudy
Partly Cloudy
79.0 °F
Feels Like 80 °F
N
2.7
Wind Variable Wind from East

Today
High -- | Low -- °F
--% Chance of Precip.
Yesterday
High -- | Low -- °F
Precip. -- in
6:35 AM 8:58 PM
Waning Gibbous, 85% visible
Pressure 29.81 in
Visibility 10.0 miles
Clouds Scattered Clouds 5500 ft
Heat Index 80 °F
Dew Point 56 °F
Humidity 46%
Rainfall 0.03 in
Snow Depth Not available.
UV 8 out of 12
Pollen 5.20 out of 12
Air Quality Not available.
Flu Activity Not available.
METAR KRMY 031814Z AUTO 27016G22KT 10SM SCT055 27/13 A2981 RMK AO2 T02660126

More Conditions Fewer Conditions

Pressure 29.81 in
Visibility 10.0 miles
Clouds Scattered Clouds 5500 ft
Heat Index 80 °F
Dew Point 56 °F
Humidity 46%
Rainfall 0.03 in
Snow Depth Not available.
UV 8 out of 12
Pollen 5.20 out of 12
Air Quality Not available.
Flu Activity Not available.
METAR KRMY 031814Z AUTO 27016G22KT 10SM SCT055 27/13 A2981 RMK AO2 T02660126

More Conditions Fewer Conditions

10-Day Weather Forecast

×

Almanac

Astronomy

Aug. 03, 2015 Rise Set
Actual Time
Civil Twilight
Nautical Twilight
Astronomical Twilight
Moon
Length of Visible Light
Length of Day
Tomorrow will be .
, % of the Moon is Illuminated

Today's Extremes

State Highs State Lows

Community

WunderPhotos

Upload Photos

1,843,697 photos uploaded!

WunderBlogs® & News

Nearby

Air Quality

  Air Quality AQ Index Pollutant
Not available.

Snow Depth

Station Depth Elevation

Earthquake Activity

City Distance Mag. Time & Date
Minimum magnitude displayed is 2.5.

Coastal Water Temperatures

Place Temperature

Stations

Nearby Weather Stations

Station Location Temp. Windchill Dew Point Humidity Wind Precip. Elev Updated Type